createdAt,value
2019-02-28T00:00:07.388Z,1004
2019-02-28T00:01:12.948Z,1004
2019-02-28T00:02:15.074Z,1004
2019-02-28T00:03:27.258Z,1004
2019-02-28T00:04:33.018Z,1003.9
2019-02-28T00:05:39.072Z,1004
2019-02-28T00:06:45.122Z,1003.9
2019-02-28T00:07:50.540Z,1003.9
2019-02-28T00:08:54.433Z,1003.8
2019-02-28T00:09:58.229Z,1003.8
2019-02-28T00:11:05.915Z,1003.8
2019-02-28T00:12:14.400Z,1003.7
2019-02-28T00:13:22.501Z,1003.7
2019-02-28T00:14:28.473Z,1003.6
2019-02-28T00:15:30.663Z,1003.6
2019-02-28T00:16:36.406Z,1003.6
2019-02-28T00:17:43.669Z,1003.7
2019-02-28T00:18:50.613Z,1003.7
2019-02-28T00:19:57.952Z,1003.6
2019-02-28T00:21:07.129Z,1003.6
2019-02-28T00:22:15.469Z,1003.6
2019-02-28T00:23:22.717Z,1003.6
2019-02-28T00:24:30.688Z,1003.5
2019-02-28T00:25:38.651Z,1003.5
2019-02-28T00:26:47.801Z,1003.5
2019-02-28T00:27:53.448Z,1003.5
2019-02-28T00:29:01.091Z,1003.5
2019-02-28T00:30:06.909Z,1003.4
2019-02-28T00:31:15.424Z,1003.3
2019-02-28T00:32:17.564Z,1003.3
2019-02-28T00:33:26.903Z,1003.3
2019-02-28T00:34:32.982Z,1003.3
2019-02-28T00:35:44.611Z,1003.3
2019-02-28T00:36:54.026Z,1003.3
2019-02-28T00:37:57.631Z,1003.3
2019-02-28T00:39:00.886Z,1003.3
2019-02-28T00:40:07.566Z,1003.3
2019-02-28T00:41:10.506Z,1003.3
2019-02-28T00:42:18.347Z,1003.3
2019-02-28T00:43:25.783Z,1003.2
2019-02-28T00:44:31.415Z,1003.3
2019-02-28T00:45:37.343Z,1003.2
2019-02-28T00:46:45.364Z,1003.2
2019-02-28T00:47:48.541Z,1003.2
2019-02-28T00:48:54.157Z,1003.1
2019-02-28T00:49:56.956Z,1003.1
2019-02-28T00:50:59.570Z,1003.1
2019-02-28T00:52:02.530Z,1003.1
2019-02-28T00:53:07.469Z,1003
2019-02-28T00:54:10.270Z,1003.1
2019-02-28T00:55:15.495Z,1003
2019-02-28T00:56:18.555Z,1003
2019-02-28T00:57:24.673Z,1003
2019-02-28T00:58:29.761Z,1003.1
2019-02-28T00:59:32.898Z,1003.1
2019-02-28T01:00:38.234Z,1003.1
2019-02-28T01:01:43.010Z,1003.1
2019-02-28T01:02:53.677Z,1003.1
2019-02-28T01:03:59.061Z,1003
2019-02-28T01:05:05.955Z,1003
2019-02-28T01:06:10.850Z,1002.9
2019-02-28T01:07:16.933Z,1002.9
2019-02-28T01:08:22.759Z,1002.9
2019-02-28T01:09:31.002Z,1002.9
2019-02-28T01:10:40.048Z,1002.8
2019-02-28T01:11:45.723Z,1002.8
2019-02-28T01:12:54.620Z,1002.8
2019-02-28T01:14:02.364Z,1002.8
2019-02-28T01:15:09.985Z,1002.7
2019-02-28T01:16:12.721Z,1002.7
2019-02-28T01:17:23.996Z,1002.7
2019-02-28T01:18:29.177Z,1002.7
2019-02-28T01:19:36.960Z,1002.7
2019-02-28T01:20:43.668Z,1002.7
2019-02-28T01:21:52.139Z,1002.6
2019-02-28T01:22:59.511Z,1002.6
2019-02-28T01:24:02.038Z,1002.6
2019-02-28T01:25:07.116Z,1002.6
2019-02-28T01:26:12.487Z,1002.6
2019-02-28T01:27:21.788Z,1002.5
2019-02-28T01:28:27.857Z,1002.5
2019-02-28T01:29:29.969Z,1002.4
2019-02-28T01:30:41.624Z,1002.4
2019-02-28T01:31:43.756Z,1002.4
2019-02-28T01:32:51.067Z,1002.3
2019-02-28T01:33:59.342Z,1002.3
2019-02-28T01:35:06.956Z,1002.3
2019-02-28T01:36:16.236Z,1002.3
2019-02-28T01:37:21.959Z,1002.2
2019-02-28T01:38:25.720Z,1002.2
2019-02-28T01:39:30.799Z,1002.2
2019-02-28T01:40:38.405Z,1002.1
2019-02-28T01:41:45.866Z,1002.2
2019-02-28T01:42:53.647Z,1002.2
2019-02-28T01:43:57.425Z,1002.2
2019-02-28T01:45:03.918Z,1002.2
2019-02-28T01:46:17.858Z,1002.1
2019-02-28T01:47:21.207Z,1002.1
2019-02-28T01:48:24.251Z,1002.1
2019-02-28T01:49:27.226Z,1002.1
2019-02-28T01:50:30.893Z,1002.1
2019-02-28T01:51:36.945Z,1002.1
2019-02-28T01:52:46.163Z,1002.1
2019-02-28T01:53:54.350Z,1002.1
2019-02-28T01:54:59.166Z,1002.1
2019-02-28T01:56:03.326Z,1002.1
2019-02-28T01:57:05.495Z,1002
2019-02-28T01:58:17.464Z,1002
2019-02-28T01:59:22.435Z,1002
2019-02-28T02:00:24.933Z,1002
2019-02-28T02:01:31.688Z,1001.9
2019-02-28T02:02:33.846Z,1001.9
2019-02-28T02:03:41.839Z,1002
2019-02-28T02:04:46.642Z,1002
2019-02-28T02:05:52.621Z,1001.9
2019-02-28T02:07:00.476Z,1001.9
2019-02-28T02:08:07.426Z,1001.9
2019-02-28T02:09:11.971Z,1001.9
2019-02-28T02:10:14.086Z,1001.9
2019-02-28T02:11:22.938Z,1001.9
2019-02-28T02:12:32.518Z,1001.9
2019-02-28T02:13:37.605Z,1001.9
2019-02-28T02:14:44.500Z,1001.9
2019-02-28T02:15:52.088Z,1001.8
2019-02-28T02:16:54.288Z,1001.8
2019-02-28T02:17:56.398Z,1001.8
2019-02-28T02:18:58.801Z,1001.7
2019-02-28T02:20:00.920Z,1001.7
2019-02-28T02:21:03.051Z,1001.7
2019-02-28T02:22:10.203Z,1001.8
2019-02-28T02:23:18.910Z,1001.8
2019-02-28T02:24:21.075Z,1001.7
2019-02-28T02:25:30.419Z,1001.7
2019-02-28T02:26:32.528Z,1001.7
2019-02-28T02:27:34.643Z,1001.7
2019-02-28T02:28:37.349Z,1001.7
2019-02-28T02:29:39.473Z,1001.7
2019-02-28T02:30:42.252Z,1001.7
2019-02-28T02:31:53.814Z,1001.7
2019-02-28T02:32:56.059Z,1001.6
2019-02-28T02:33:58.872Z,1001.7
2019-02-28T02:35:08.547Z,1001.7
2019-02-28T02:36:11.345Z,1001.6
2019-02-28T02:37:19.445Z,1001.6
2019-02-28T02:38:21.614Z,1001.5
2019-02-28T02:39:24.438Z,1001.6
2019-02-28T02:40:26.844Z,1001.5
2019-02-28T02:41:34.645Z,1001.6
2019-02-28T02:42:36.853Z,1001.5
2019-02-28T02:43:38.982Z,1001.5
2019-02-28T02:44:41.120Z,1001.5
2019-02-28T02:45:44.121Z,1001.4
2019-02-28T02:46:46.625Z,1001.4
2019-02-28T02:47:49.062Z,1001.3
2019-02-28T02:48:51.479Z,1001.3
2019-02-28T02:49:57.906Z,1001.3
2019-02-28T02:51:00.423Z,1001.4
2019-02-28T02:52:03.440Z,1001.3
2019-02-28T02:53:06.848Z,1001.3
2019-02-28T02:54:09.969Z,1001.3
2019-02-28T02:55:29.309Z,1001.3
2019-02-28T02:56:31.970Z,1001.3
2019-02-28T02:57:51.944Z,1001.2
2019-02-28T02:58:54.894Z,1001.2
2019-02-28T02:59:57.004Z,1001.2
2019-02-28T03:00:59.810Z,1001.2
2019-02-28T03:02:02.256Z,1001.2
2019-02-28T03:03:07.789Z,1001.2
2019-02-28T03:04:10.599Z,1001.1
2019-02-28T03:05:17.642Z,1001.2
2019-02-28T03:06:19.784Z,1001.2
2019-02-28T03:07:25.081Z,1001.1
2019-02-28T03:08:27.806Z,1001.2
2019-02-28T03:09:44.754Z,1001.2
2019-02-28T03:10:47.002Z,1001.1
2019-02-28T03:11:58.783Z,1001.2
2019-02-28T03:13:06.400Z,1001.2
2019-02-28T03:14:08.966Z,1001.2
2019-02-28T03:15:11.408Z,1001.2
2019-02-28T03:16:13.961Z,1001.2
2019-02-28T03:17:16.402Z,1001.3
2019-02-28T03:18:21.765Z,1001.3
2019-02-28T03:19:24.700Z,1001.3
2019-02-28T03:20:41.094Z,1001.3
2019-02-28T03:21:52.971Z,1001.2
2019-02-28T03:22:55.716Z,1001.2
2019-02-28T03:23:58.555Z,1001.3
2019-02-28T03:25:00.960Z,1001.3
2019-02-28T03:26:07.553Z,1001.2
2019-02-28T03:27:11.064Z,1001.2
2019-02-28T03:28:21.996Z,1001.3
2019-02-28T03:29:24.675Z,1001.3
2019-02-28T03:30:33.553Z,1001.3
2019-02-28T03:31:36.455Z,1001.3
2019-02-28T03:32:43.045Z,1001.3
2019-02-28T03:33:45.419Z,1001.2
2019-02-28T03:34:58.882Z,1001.2
2019-02-28T03:36:02.328Z,1001.2
2019-02-28T03:37:05.024Z,1001.2
2019-02-28T03:38:12.812Z,1001.2
2019-02-28T03:39:15.235Z,1001.2
2019-02-28T03:40:17.672Z,1001.2
2019-02-28T03:41:19.828Z,1001.2
2019-02-28T03:42:30.069Z,1001.2
2019-02-28T03:43:33.060Z,1001.1
2019-02-28T03:44:35.173Z,1001.1
2019-02-28T03:45:37.295Z,1001.1
2019-02-28T03:46:46.678Z,1001.1
2019-02-28T03:47:50.193Z,1001.1
2019-02-28T03:48:52.586Z,1001.1
2019-02-28T03:49:54.700Z,1001.1
2019-02-28T03:50:57.389Z,1001
2019-02-28T03:52:06.828Z,1001.1
2019-02-28T03:53:09.475Z,1001.1
2019-02-28T03:54:11.597Z,1001.2
2019-02-28T03:55:13.763Z,1001.2
2019-02-28T03:56:16.665Z,1001.1
2019-02-28T03:57:18.801Z,1001.1
2019-02-28T03:58:21.212Z,1001.1
2019-02-28T03:59:23.793Z,1001.1
2019-02-28T04:00:34.181Z,1001.1
2019-02-28T04:01:37.254Z,1001.1
2019-02-28T04:02:48.238Z,1001.1
2019-02-28T04:04:00.626Z,1001
2019-02-28T04:05:08.052Z,1001
2019-02-28T04:06:11.168Z,1001
2019-02-28T04:07:17.443Z,1000.9
2019-02-28T04:08:19.612Z,1000.9
2019-02-28T04:09:22.011Z,1000.8
2019-02-28T04:10:24.835Z,1000.7
2019-02-28T04:11:32.183Z,1000.7
2019-02-28T04:12:34.941Z,1000.7
2019-02-28T04:13:37.654Z,1000.7
2019-02-28T04:14:39.802Z,1000.7
2019-02-28T04:16:08.241Z,1000.7
2019-02-28T04:17:12.402Z,1000.7
2019-02-28T04:18:15.118Z,1000.7
2019-02-28T04:19:23.025Z,1000.7
2019-02-28T04:20:25.291Z,1000.7
2019-02-28T04:21:27.685Z,1000.7
2019-02-28T04:22:29.838Z,1000.7
2019-02-28T04:23:37.063Z,1000.7
2019-02-28T04:24:39.193Z,1000.6
2019-02-28T04:25:41.628Z,1000.7
2019-02-28T04:26:44.077Z,1000.7
2019-02-28T04:27:46.797Z,1000.6
2019-02-28T04:28:54.893Z,1000.6
2019-02-28T04:29:58.000Z,1000.6
2019-02-28T04:31:10.013Z,1000.7
2019-02-28T04:32:27.932Z,1000.7
2019-02-28T04:33:37.298Z,1000.7
2019-02-28T04:34:41.293Z,1000.6
2019-02-28T04:35:49.654Z,1000.6
2019-02-28T04:36:52.076Z,1000.5
2019-02-28T04:37:54.599Z,1000.5
2019-02-28T04:38:57.014Z,1000.5
2019-02-28T04:39:59.174Z,1000.6
2019-02-28T04:41:01.281Z,1000.6
2019-02-28T04:42:06.093Z,1000.6
2019-02-28T04:43:11.282Z,1000.6
2019-02-28T04:44:18.996Z,1000.6
2019-02-28T04:45:26.107Z,1000.6
2019-02-28T04:46:32.775Z,1000.6
2019-02-28T04:47:41.417Z,1000.6
2019-02-28T04:48:49.169Z,1000.7
2019-02-28T04:49:57.661Z,1000.7
2019-02-28T04:51:06.499Z,1000.6
2019-02-28T04:52:12.837Z,1000.7
2019-02-28T04:53:15.062Z,1000.7
2019-02-28T04:54:27.792Z,1000.6
2019-02-28T04:55:31.122Z,1000.6
2019-02-28T04:56:42.218Z,1000.5
2019-02-28T04:57:51.566Z,1000.6
2019-02-28T04:59:00.355Z,1000.6
2019-02-28T05:00:06.678Z,1000.6
2019-02-28T05:01:12.483Z,1000.6
2019-02-28T05:02:20.693Z,1000.5
2019-02-28T05:03:29.179Z,1000.5
2019-02-28T05:04:36.233Z,1000.4
2019-02-28T05:05:38.886Z,1000.4
2019-02-28T05:06:40.999Z,1000.4
2019-02-28T05:07:43.424Z,1000.4
2019-02-28T05:08:45.916Z,1000.4
2019-02-28T05:09:49.270Z,1000.4
2019-02-28T05:10:56.804Z,1000.4
2019-02-28T05:11:59.285Z,1000.4
2019-02-28T05:13:07.791Z,1000.3
2019-02-28T05:14:16.005Z,1000.3
2019-02-28T05:15:24.580Z,1000.3
2019-02-28T05:16:26.706Z,1000.4
2019-02-28T05:17:29.106Z,1000.4
2019-02-28T05:18:31.506Z,1000.4
2019-02-28T05:19:36.660Z,1000.3
2019-02-28T05:20:39.227Z,1000.4
2019-02-28T05:21:47.763Z,1000.3
2019-02-28T05:22:55.994Z,1000.3
2019-02-28T05:24:07.652Z,1000.4
2019-02-28T05:25:10.876Z,1000.4
2019-02-28T05:26:20.111Z,1000.3
2019-02-28T05:27:36.405Z,1000.4
2019-02-28T05:28:41.560Z,1000.3
2019-02-28T05:29:45.097Z,1000.4
2019-02-28T05:30:53.782Z,1000.4
2019-02-28T05:32:01.820Z,1000.3
2019-02-28T05:33:07.469Z,1000.3
2019-02-28T05:34:09.636Z,1000.3
2019-02-28T05:35:18.328Z,1000.2
2019-02-28T05:36:27.061Z,1000.2
2019-02-28T05:37:29.598Z,1000.2
2019-02-28T05:38:32.123Z,1000.3
2019-02-28T05:39:34.645Z,1000.2
2019-02-28T05:40:41.513Z,1000.2
2019-02-28T05:41:48.911Z,1000.2
2019-02-28T05:42:59.161Z,1000.2
2019-02-28T05:44:06.123Z,1000.1
2019-02-28T05:45:14.537Z,1000.1
2019-02-28T05:46:24.574Z,1000
2019-02-28T05:47:33.170Z,1000
2019-02-28T05:48:49.005Z,1000
2019-02-28T05:49:51.146Z,1000.1
2019-02-28T05:50:54.352Z,1000
2019-02-28T05:51:59.862Z,1000
2019-02-28T05:53:06.182Z,1000
2019-02-28T05:54:17.193Z,1000
2019-02-28T05:55:25.831Z,1000
2019-02-28T05:56:34.064Z,1000.1
2019-02-28T05:57:39.279Z,1000.1
2019-02-28T05:58:53.376Z,1000.1
2019-02-28T06:00:02.986Z,1000.1
2019-02-28T06:01:08.677Z,1000.1
2019-02-28T06:02:14.346Z,1000.1
2019-02-28T06:03:16.507Z,1000
2019-02-28T06:04:18.601Z,1000.2
2019-02-28T06:05:20.747Z,1000.2
2019-02-28T06:06:22.856Z,1000.3
2019-02-28T06:07:29.570Z,1000.3
2019-02-28T06:08:32.065Z,1000.4
2019-02-28T06:09:41.364Z,1000.4
2019-02-28T06:10:43.470Z,1000.4
2019-02-28T06:11:45.883Z,1000.3
2019-02-28T06:12:48.009Z,1000.4
2019-02-28T06:13:53.663Z,1000.4
2019-02-28T06:15:03.696Z,1000.4
2019-02-28T06:16:12.518Z,1000.4
2019-02-28T06:17:20.619Z,1000.4
2019-02-28T06:18:33.261Z,1000.4
2019-02-28T06:19:36.267Z,1000.4
2019-02-28T06:20:45.247Z,1000.4
2019-02-28T06:22:00.154Z,1000.4
2019-02-28T06:23:02.310Z,1000.4
2019-02-28T06:24:13.586Z,1000.4
2019-02-28T06:25:25.803Z,1000.5
2019-02-28T06:26:32.994Z,1000.5
2019-02-28T06:27:48.694Z,1000.5
2019-02-28T06:28:52.654Z,1000.5
2019-02-28T06:29:54.767Z,1000.5
2019-02-28T06:30:57.183Z,1000.6
2019-02-28T06:32:01.950Z,1000.6
2019-02-28T06:33:04.462Z,1000.6
2019-02-28T06:34:09.469Z,1000.5
2019-02-28T06:35:19.524Z,1000.4
2019-02-28T06:36:29.911Z,1000.5
2019-02-28T06:37:32.051Z,1000.4
2019-02-28T06:38:40.540Z,1000.4
2019-02-28T06:39:42.941Z,1000.4
2019-02-28T06:40:45.405Z,1000.4
2019-02-28T06:41:47.791Z,1000.4
2019-02-28T06:42:49.911Z,1000.3
2019-02-28T06:43:53.891Z,1000.3
2019-02-28T06:45:03.654Z,1000.4
2019-02-28T06:46:09.374Z,1000.4
2019-02-28T06:47:14.965Z,1000.4
2019-02-28T06:48:17.380Z,1000.3
2019-02-28T06:49:28.561Z,1000.3
2019-02-28T06:50:30.666Z,1000.3
2019-02-28T06:51:33.473Z,1000.3
2019-02-28T06:52:35.593Z,1000.3
2019-02-28T06:53:37.978Z,1000.3
2019-02-28T06:54:41.414Z,1000.3
2019-02-28T06:55:47.150Z,1000.3
2019-02-28T06:56:49.546Z,1000.4
2019-02-28T06:57:55.302Z,1000.4
2019-02-28T06:59:04.868Z,1000.4
2019-02-28T07:00:13.325Z,1000.3
2019-02-28T07:01:22.957Z,1000.4
2019-02-28T07:02:25.437Z,1000.2
2019-02-28T07:03:39.786Z,1000.2
2019-02-28T07:04:54.656Z,1000.2
2019-02-28T07:06:01.911Z,1000.1
2019-02-28T07:07:07.317Z,1000.2
2019-02-28T07:08:15.735Z,1000.2
2019-02-28T07:09:17.866Z,1000.2
2019-02-28T07:10:20.431Z,1000.2
2019-02-28T07:11:23.210Z,1000.2
2019-02-28T07:12:30.543Z,1000.3
2019-02-28T07:13:40.210Z,1000.4
2019-02-28T07:14:49.565Z,1000.3
2019-02-28T07:15:52.437Z,1000.4
2019-02-28T07:17:01.562Z,1000.4
2019-02-28T07:18:03.980Z,1000.5
2019-02-28T07:19:06.362Z,1000.5
2019-02-28T07:20:10.183Z,1000.6
2019-02-28T07:21:12.294Z,1000.6
2019-02-28T07:22:20.706Z,1000.7
2019-02-28T07:23:23.176Z,1000.6
2019-02-28T07:24:38.227Z,1000.7
2019-02-28T07:25:40.447Z,1000.7
2019-02-28T07:26:52.174Z,1000.7
2019-02-28T07:27:55.684Z,1000.8
2019-02-28T07:28:57.801Z,1000.7
2019-02-28T07:29:59.921Z,1000.8
2019-02-28T07:31:03.578Z,1000.8
2019-02-28T07:32:07.385Z,1000.8
2019-02-28T07:33:10.898Z,1000.9
2019-02-28T07:34:23.751Z,1000.9
2019-02-28T07:35:26.043Z,1001
2019-02-28T07:36:38.296Z,1001.1
2019-02-28T07:37:47.348Z,1001.1
2019-02-28T07:39:01.211Z,1001.1
2019-02-28T07:40:07.117Z,1001.1
2019-02-28T07:41:09.548Z,1001.1
2019-02-28T07:42:11.672Z,1001.1
2019-02-28T07:43:13.780Z,1001.2
2019-02-28T07:44:22.365Z,1001.3
2019-02-28T07:45:25.129Z,1001.3
2019-02-28T07:46:27.262Z,1001.3
2019-02-28T07:47:29.375Z,1001.3
2019-02-28T07:48:31.480Z,1001.3
2019-02-28T07:49:37.125Z,1001.3
2019-02-28T07:50:39.662Z,1001.2
2019-02-28T07:51:49.262Z,1001.2
2019-02-28T07:52:53.448Z,1001.2
2019-02-28T07:53:55.877Z,1001.2
2019-02-28T07:54:58.295Z,1001.3
2019-02-28T07:56:00.437Z,1001.2
2019-02-28T07:57:10.731Z,1001.3
2019-02-28T07:58:19.454Z,1001.4
2019-02-28T07:59:22.479Z,1001.5
2019-02-28T08:00:25.333Z,1001.5
2019-02-28T08:01:28.766Z,1001.5
2019-02-28T08:02:30.882Z,1001.5
2019-02-28T08:03:44.892Z,1001.5
2019-02-28T08:04:54.297Z,1001.5
2019-02-28T08:05:58.412Z,1001.5
2019-02-28T08:07:07.940Z,1001.4
2019-02-28T08:08:17.054Z,1001.5
2019-02-28T08:09:19.474Z,1001.6
2019-02-28T08:10:21.997Z,1001.7
2019-02-28T08:11:24.113Z,1001.6
2019-02-28T08:12:30.695Z,1001.6
2019-02-28T08:13:38.556Z,1001.6
2019-02-28T08:14:47.801Z,1001.5
2019-02-28T08:15:56.382Z,1001.6
2019-02-28T08:17:08.768Z,1001.5
2019-02-28T08:18:12.239Z,1001.5
2019-02-28T08:19:27.006Z,1001.5
2019-02-28T08:20:34.791Z,1001.5
2019-02-28T08:21:37.007Z,1001.5
2019-02-28T08:22:52.163Z,1001.5
2019-02-28T08:24:06.351Z,1001.4
2019-02-28T08:25:09.675Z,1001.4
2019-02-28T08:26:11.821Z,1001.4
2019-02-28T08:27:21.043Z,1001.4
2019-02-28T08:28:35.475Z,1001.5
2019-02-28T08:29:45.987Z,1001.5
2019-02-28T08:30:56.012Z,1001.5
2019-02-28T08:31:58.890Z,1001.4
2019-02-28T08:33:01.036Z,1001.4
2019-02-28T08:34:03.549Z,1001.5
2019-02-28T08:35:06.059Z,1001.5
2019-02-28T08:36:12.745Z,1001.5
2019-02-28T08:37:18.932Z,1001.6
2019-02-28T08:38:24.132Z,1001.6
2019-02-28T08:39:26.664Z,1001.6
2019-02-28T08:40:29.063Z,1001.6
2019-02-28T08:41:31.529Z,1001.6
2019-02-28T08:42:39.811Z,1001.5
2019-02-28T08:43:47.743Z,1001.4
2019-02-28T08:44:50.997Z,1001.5
2019-02-28T08:46:02.957Z,1001.6
2019-02-28T08:47:21.811Z,1001.7
2019-02-28T08:48:24.280Z,1001.8
2019-02-28T08:49:45.420Z,1001.7
2019-02-28T08:50:47.685Z,1001.7
2019-02-28T08:51:50.831Z,1001.7
2019-02-28T08:52:54.227Z,1001.7
2019-02-28T08:53:56.627Z,1001.7
2019-02-28T08:55:04.683Z,1001.7
2019-02-28T08:56:14.913Z,1001.8
2019-02-28T08:57:17.067Z,1001.8
2019-02-28T08:58:19.189Z,1001.8
2019-02-28T08:59:23.051Z,1001.7
2019-02-28T09:00:33.123Z,1001.6
2019-02-28T09:01:43.466Z,1001.6
2019-02-28T09:02:46.274Z,1001.6
2019-02-28T09:03:55.469Z,1001.7
2019-02-28T09:05:07.319Z,1001.8
2019-02-28T09:06:09.451Z,1001.8
2019-02-28T09:07:15.949Z,1001.8
2019-02-28T09:08:18.376Z,1001.6
2019-02-28T09:09:23.609Z,1001.5
2019-02-28T09:10:25.732Z,1001.5
2019-02-28T09:11:27.863Z,1001.6
2019-02-28T09:12:34.111Z,1001.8
2019-02-28T09:13:36.263Z,1002
2019-02-28T09:14:44.727Z,1002
2019-02-28T09:15:46.832Z,1002
2019-02-28T09:16:48.957Z,1002
2019-02-28T09:17:51.373Z,1001.9
2019-02-28T09:19:01.861Z,1001.9
2019-02-28T09:20:03.981Z,1001.9
2019-02-28T09:21:15.370Z,1002.1
2019-02-28T09:22:21.127Z,1002.2
2019-02-28T09:23:29.738Z,1002.2
2019-02-28T09:24:31.893Z,1002.1
2019-02-28T09:25:34.051Z,1002
2019-02-28T09:26:36.184Z,1002
2019-02-28T09:27:39.809Z,1001.9
2019-02-28T09:28:48.197Z,1002
2019-02-28T09:29:55.545Z,1002
2019-02-28T09:30:57.779Z,1002.1
2019-02-28T09:32:14.341Z,1002.1
2019-02-28T09:33:23.947Z,1002
2019-02-28T09:34:26.554Z,1002
2019-02-28T09:35:32.688Z,1001.9
2019-02-28T09:36:34.857Z,1001.9
2019-02-28T09:37:36.970Z,1001.9
2019-02-28T09:38:39.110Z,1001.9
2019-02-28T09:39:47.280Z,1002
2019-02-28T09:40:52.402Z,1002.1
2019-02-28T09:41:54.523Z,1002.2
2019-02-28T09:42:56.656Z,1002.1
2019-02-28T09:44:00.604Z,1002.1
2019-02-28T09:45:07.814Z,1001.9
2019-02-28T09:46:15.521Z,1001.9
2019-02-28T09:47:23.297Z,1001.9
2019-02-28T09:48:33.904Z,1002
2019-02-28T09:49:39.830Z,1002
2019-02-28T09:50:42.257Z,1002
2019-02-28T09:51:44.388Z,1002
2019-02-28T09:52:46.799Z,1002
2019-02-28T09:53:51.093Z,1002
2019-02-28T09:54:53.219Z,1002
2019-02-28T09:56:01.558Z,1002
2019-02-28T09:57:03.955Z,1002
2019-02-28T09:58:06.079Z,1002.1
2019-02-28T09:59:08.216Z,1002.1
2019-02-28T10:00:12.860Z,1002.1
2019-02-28T10:01:14.997Z,1002.2
2019-02-28T10:02:17.135Z,1002.2
2019-02-28T10:03:19.870Z,1002.2
2019-02-28T10:04:21.984Z,1002.2
2019-02-28T10:05:24.132Z,1002.2
2019-02-28T10:06:26.961Z,1002.2
2019-02-28T10:07:29.080Z,1002.3
2019-02-28T10:08:37.977Z,1002.2
2019-02-28T10:09:46.983Z,1002.3
2019-02-28T10:10:56.051Z,1002.2
2019-02-28T10:11:59.376Z,1002.2
2019-02-28T10:13:01.503Z,1002.2
2019-02-28T10:14:03.617Z,1002.2
2019-02-28T10:15:07.680Z,1002.2
2019-02-28T10:16:16.720Z,1002.2
2019-02-28T10:17:19.597Z,1002.3
2019-02-28T10:18:23.787Z,1002.3
2019-02-28T10:19:25.904Z,1002.3
2019-02-28T10:20:28.845Z,1002.3
2019-02-28T10:21:39.477Z,1002.3
2019-02-28T10:22:48.068Z,1002.3
2019-02-28T10:23:50.262Z,1002.4
2019-02-28T10:24:59.571Z,1002.3
2019-02-28T10:26:08.191Z,1002.3
2019-02-28T10:27:10.614Z,1002.3
2019-02-28T10:28:13.023Z,1002.3
2019-02-28T10:29:15.425Z,1002.3
2019-02-28T10:30:17.548Z,1002.3
2019-02-28T10:31:35.342Z,1002.2
2019-02-28T10:32:44.159Z,1002.2
2019-02-28T10:33:46.287Z,1002.2
2019-02-28T10:34:54.853Z,1002.2
2019-02-28T10:36:03.518Z,1002.3
2019-02-28T10:37:05.662Z,1002.3
2019-02-28T10:38:08.062Z,1002.3
2019-02-28T10:39:10.188Z,1002.3
2019-02-28T10:40:18.703Z,1002.3
2019-02-28T10:41:20.921Z,1002.2
2019-02-28T10:42:32.958Z,1002.3
2019-02-28T10:43:41.290Z,1002.2
2019-02-28T10:44:43.421Z,1002.1
2019-02-28T10:45:46.398Z,1002.1
2019-02-28T10:46:54.596Z,1002.1
2019-02-28T10:47:57.168Z,1002.1
2019-02-28T10:49:05.848Z,1002.1
2019-02-28T10:50:07.964Z,1002.1
2019-02-28T10:51:14.684Z,1002
2019-02-28T10:52:17.464Z,1002
2019-02-28T10:53:19.575Z,1002.1
2019-02-28T10:54:21.694Z,1002
2019-02-28T10:55:23.812Z,1002
2019-02-28T10:56:25.924Z,1002.1
2019-02-28T10:57:33.974Z,1002.1
2019-02-28T10:58:43.263Z,1002.1
2019-02-28T10:59:48.330Z,1002.1
2019-02-28T11:00:50.458Z,1002.1
2019-02-28T11:01:52.578Z,1002.1
2019-02-28T11:02:57.947Z,1002.1
2019-02-28T11:04:00.560Z,1002.1
2019-02-28T11:05:05.606Z,1002.1
2019-02-28T11:06:09.940Z,1002
2019-02-28T11:07:12.074Z,1002
2019-02-28T11:08:19.118Z,1002.1
2019-02-28T11:09:25.428Z,1002.1
2019-02-28T11:10:34.673Z,1002.2
2019-02-28T11:11:38.970Z,1002.1
2019-02-28T11:12:48.006Z,1002.2
2019-02-28T11:13:50.134Z,1002.2
2019-02-28T11:14:52.234Z,1002.1
2019-02-28T11:15:54.365Z,1002.2
2019-02-28T11:17:00.738Z,1002.1
2019-02-28T11:18:08.314Z,1002.2
2019-02-28T11:19:19.389Z,1002.2
2019-02-28T11:20:26.067Z,1002.2
2019-02-28T11:21:30.665Z,1002.2
2019-02-28T11:22:32.779Z,1002.2
2019-02-28T11:23:42.046Z,1002.2
2019-02-28T11:24:44.164Z,1002.1
2019-02-28T11:25:46.316Z,1002
2019-02-28T11:26:48.450Z,1002
2019-02-28T11:27:54.693Z,1001.9
2019-02-28T11:28:57.220Z,1001.9
2019-02-28T11:30:10.064Z,1001.9
2019-02-28T11:31:13.053Z,1002
2019-02-28T11:32:21.403Z,1002.1
2019-02-28T11:33:23.522Z,1002.2
2019-02-28T11:34:25.946Z,1002.1
2019-02-28T11:35:28.081Z,1002.2
2019-02-28T11:36:34.929Z,1002.2
2019-02-28T11:37:37.409Z,1002.2
2019-02-28T11:38:39.934Z,1002.2
2019-02-28T11:39:42.417Z,1002.3
2019-02-28T11:40:44.859Z,1002.3
2019-02-28T11:41:53.541Z,1002.4
2019-02-28T11:42:55.898Z,1002.4
2019-02-28T11:44:06.170Z,1002.4
2019-02-28T11:45:14.457Z,1002.5
2019-02-28T11:46:22.330Z,1002.4
2019-02-28T11:47:24.835Z,1002.4
2019-02-28T11:48:26.944Z,1002.5
2019-02-28T11:49:29.734Z,1002.4
2019-02-28T11:50:31.870Z,1002.4
2019-02-28T11:51:34.314Z,1002.4
2019-02-28T11:52:36.442Z,1002.4
2019-02-28T11:53:40.681Z,1002.3
2019-02-28T11:54:45.870Z,1002.3
2019-02-28T11:55:48.079Z,1002.3
2019-02-28T11:56:50.559Z,1002.4
2019-02-28T11:57:52.677Z,1002.5
2019-02-28T11:58:55.100Z,1002.5
2019-02-28T12:00:01.502Z,1002.5
2019-02-28T12:01:03.825Z,1002.5
2019-02-28T12:02:12.729Z,1002.5
2019-02-28T12:03:14.843Z,1002.4
2019-02-28T12:04:17.647Z,1002.4
2019-02-28T12:05:19.778Z,1002.4
2019-02-28T12:06:25.528Z,1002.4
2019-02-28T12:07:28.368Z,1002.4
2019-02-28T12:08:35.800Z,1002.5
2019-02-28T12:09:37.918Z,1002.4
2019-02-28T12:10:40.040Z,1002.4
2019-02-28T12:11:42.170Z,1002.3
2019-02-28T12:12:45.533Z,1002.3
2019-02-28T12:13:47.934Z,1002.2
2019-02-28T12:15:05.952Z,1002.2
2019-02-28T12:16:08.794Z,1002.2
2019-02-28T12:17:10.910Z,1002.2
2019-02-28T12:18:13.062Z,1002.1
2019-02-28T12:19:16.869Z,1002.2
2019-02-28T12:20:19.378Z,1002.2
2019-02-28T12:21:29.422Z,1002.2
2019-02-28T12:22:31.546Z,1002.3
2019-02-28T12:23:33.645Z,1002.3
2019-02-28T12:24:35.788Z,1002.3
2019-02-28T12:25:43.535Z,1002.3
2019-02-28T12:26:46.120Z,1002.3
2019-02-28T12:27:55.557Z,1002.2
2019-02-28T12:29:05.021Z,1002.1
2019-02-28T12:30:07.176Z,1002.1
2019-02-28T12:31:09.886Z,1002
2019-02-28T12:32:11.998Z,1002.1
2019-02-28T12:33:18.651Z,1002.2
2019-02-28T12:34:30.058Z,1002.2
2019-02-28T12:35:40.448Z,1002.2
2019-02-28T12:36:42.815Z,1002.2
2019-02-28T12:37:55.005Z,1002.3
2019-02-28T12:39:02.244Z,1002.2
2019-02-28T12:40:10.202Z,1002.2
2019-02-28T12:41:13.126Z,1002.2
2019-02-28T12:42:15.233Z,1002.2
2019-02-28T12:43:17.381Z,1002.2
2019-02-28T12:44:19.501Z,1002.2
2019-02-28T12:45:25.252Z,1002.2
2019-02-28T12:46:27.420Z,1002.2
2019-02-28T12:47:33.853Z,1002.2
2019-02-28T12:48:35.968Z,1002.2
2019-02-28T12:49:38.110Z,1002.1
2019-02-28T12:50:40.231Z,1002.1
2019-02-28T12:51:42.658Z,1002.1
2019-02-28T12:52:50.066Z,1002.1
2019-02-28T12:53:52.684Z,1002.1
2019-02-28T12:55:04.869Z,1002.1
2019-02-28T12:56:07.422Z,1002
2019-02-28T12:57:15.863Z,1002.1
2019-02-28T12:58:24.352Z,1002.1
2019-02-28T12:59:26.492Z,1002.1
2019-02-28T13:00:29.504Z,1002.1
2019-02-28T13:01:34.509Z,1002
2019-02-28T13:02:43.487Z,1002
2019-02-28T13:03:53.782Z,1002.1
2019-02-28T13:05:03.042Z,1002.2
2019-02-28T13:06:06.160Z,1002.1
2019-02-28T13:07:09.563Z,1002.2
2019-02-28T13:08:13.072Z,1002.2
2019-02-28T13:09:17.837Z,1002.2
2019-02-28T13:10:20.013Z,1002.1
2019-02-28T13:11:36.621Z,1002.2
2019-02-28T13:12:39.453Z,1002.1
2019-02-28T13:13:52.111Z,1002.1
2019-02-28T13:14:55.208Z,1002.1
2019-02-28T13:15:58.644Z,1002.2
2019-02-28T13:17:01.071Z,1002.1
2019-02-28T13:18:09.449Z,1002.1
2019-02-28T13:19:12.303Z,1002.1
2019-02-28T13:20:22.386Z,1002.1
2019-02-28T13:21:24.509Z,1002
2019-02-28T13:22:27.338Z,1002.1
2019-02-28T13:23:34.067Z,1002
2019-02-28T13:24:36.623Z,1002
2019-02-28T13:25:39.132Z,1002
2019-02-28T13:26:41.556Z,1001.9
2019-02-28T13:27:46.187Z,1002
2019-02-28T13:28:48.375Z,1001.9
2019-02-28T13:29:53.464Z,1002
2019-02-28T13:30:55.889Z,1001.9
2019-02-28T13:32:02.558Z,1002
2019-02-28T13:33:05.811Z,1002
2019-02-28T13:34:16.188Z,1002
2019-02-28T13:35:18.615Z,1001.9
2019-02-28T13:36:22.877Z,1001.9
2019-02-28T13:37:26.726Z,1002
2019-02-28T13:38:29.173Z,1002
2019-02-28T13:39:32.914Z,1002
2019-02-28T13:40:35.370Z,1002
2019-02-28T13:41:37.885Z,1002
2019-02-28T13:42:42.865Z,1002